Date,TemperatureHighF,TemperatureAvgF,TemperatureLowF,DewpointHighF,DewpointAvgF,DewpointLowF,HumidityHigh,HumidityAvg,HumidityLow,PressureMaxIn,PressureMinIn,WindSpeedMaxMPH,WindSpeedAvgMPH,GustSpeedMaxMPH,PrecipitationSumIn
2014-1-1,44.9,34.3,25.1,30.0,24.7,18.5,83,69,47,29.78,29.49,4,0,7,0.00
2014-1-2,35.1,32.3,29.1,31.4,28.9,25.4,95,87,77,29.48,29.00,4,0,4,0.00
2014-1-3,28.7,19.3,13.8,26.9,8.0,1.1,93,62,39,29.85,29.03,14,3,19,0.03
2014-1-4,31.6,21.6,11.5,16.1,10.1,4.4,76,61,46,29.87,29.61,6,1,12,0.02
2014-1-5,34.8,30.6,24.8,34.3,27.3,15.5,98,88,67,29.62,29.09,1,0,2,0.00
2014-1-6,46.7,32.1,7.5,46.0,22.1,-10.3,98,68,41,29.45,28.87,12,4,16,0.09
2014-1-7,18.9,9.2,2.2,-0.7,-7.3,-12.6,63,47,33,29.81,29.45,8,1,14,0.00
2014-1-8,26.2,17.6,7.8,14.5,4.3,-2.1,76,57,41,29.96,29.81,6,0,7,0.00
2014-1-9,37.0,31.5,24.0,24.5,20.0,13.1,76,62,54,30.01,29.85,2,0,7,0.00
2014-1-10,34.7,32.4,30.4,33.9,29.6,21.5,97,90,68,29.90,29.51,0,0,0,0.51
2014-1-11,52.0,43.7,34.8,50.8,42.4,34.0,99,95,68,29.50,28.80,7,1,15,0.59
2014-1-12,51.3,43.4,35.4,39.6,32.8,30.6,85,67,46,29.48,28.95,12,2,20,0.00
2014-1-13,55.7,44.5,32.0,40.5,34.4,28.3,88,69,52,29.47,29.24,13,1,13,0.00
2014-1-14,49.0,46.0,38.2,45.6,42.5,36.1,96,88,74,29.28,29.08,6,1,13,0.14
2014-1-15,46.3,34.8,29.9,42.4,32.6,29.1,98,92,62,29.34,29.25,7,1,10,0.05
2014-1-16,38.2,32.2,28.3,31.8,25.7,20.6,95,78,50,29.40,29.26,4,1,6,0.05
2014-1-17,48.1,36.6,26.6,30.4,26.9,21.9,86,69,47,29.34,29.20,6,0,9,0.00
2014-1-18,38.0,26.4,20.8,32.0,15.8,9.3,93,65,46,29.36,29.18,10,3,22,0.00
2014-1-19,46.4,31.4,19.4,27.3,19.9,11.3,81,63,43,29.32,29.11,6,0,14,0.01
2014-1-20,56.3,44.4,32.2,30.2,26.6,22.2,74,51,35,29.25,29.03,8,2,16,0.00
2014-1-21,38.6,26.7,14.6,28.4,21.9,7.6,92,83,63,29.27,29.11,5,1,9,0.00
2014-1-22,17.1,12.2,5.0,6.7,-0.3,-3.0,71,57,44,29.46,29.26,10,2,14,0.00
2014-1-23,24.5,14.0,7.4,12.2,1.3,-2.3,70,57,41,29.81,29.45,7,1,12,0.00
2014-1-24,23.5,14.7,7.9,2.5,-1.8,-4.3,60,48,32,29.89,29.42,12,2,12,0.00
2014-1-25,31.1,24.5,16.4,23.7,8.4,0.9,80,50,40,29.41,28.84,12,3,16,0.01
2014-1-26,31.0,24.7,14.6,14.1,7.6,3.1,66,48,35,29.28,29.03,10,2,13,0.00
2014-1-27,49.6,32.0,18.2,32.2,15.4,2.9,65,50,39,29.56,29.02,14,4,20,0.08
2014-1-28,17.9,12.0,8.0,2.6,-4.8,-8.0,52,46,39,29.81,29.58,11,2,12,0.00
2014-1-29,24.2,13.9,8.3,6.7,1.1,-6.1,82,58,30,29.73,29.57,8,1,15,0.00
2014-1-30,31.8,20.9,11.4,10.8,4.6,-1.6,64,50,33,29.83,29.54,5,0,9,0.00
2014-1-31,49.6,33.2,21.2,21.8,16.3,10.3,71,52,26,29.60,29.48,4,0,4,0.02